Time;durP1;ratioP1;P1;durP2;ratioP2;P2;SDS_P1;SDS_P2;PMS_P1;PMS_P2;Temp;Humidity;BMP_temperature;BMP_pressure;BME280_temperature;BME280_humidity;BME280_pressure;Samples;Min_cycle;Max_cycle;Signal;HPM_P1;HPM_P2
2023/04/16 00:01:14;;;;;;;41.28;22.27;;;10.60;68.00;;;;;;4944929;28;20059;-54
2023/04/16 00:03:42;;;;;;;32.20;21.20;;;10.60;68.40;;;;;;4942747;28;20062;-54
2023/04/16 00:06:11;;;;;;;35.80;21.45;;;10.60;68.30;;;;;;4944343;28;20055;-55
2023/04/16 00:08:39;;;;;;;39.25;22.80;;;10.60;68.40;;;;;;4944083;28;20498;-53
2023/04/16 00:11:07;;;;;;;42.95;26.33;;;10.60;68.30;;;;;;4943435;28;20058;-49
2023/04/16 00:13:35;;;;;;;52.28;29.80;;;10.60;68.30;;;;;;4945781;28;20054;-56
2023/04/16 00:16:03;;;;;;;52.05;29.67;;;10.50;68.50;;;;;;4944769;28;20499;-49
2023/04/16 00:18:30;;;;;;;65.35;35.72;;;10.50;68.50;;;;;;4942319;28;20055;-52
2023/04/16 00:20:58;;;;;;;70.05;37.33;;;10.50;68.80;;;;;;4944102;28;20149;-54
2023/04/16 00:23:25;;;;;;;71.90;42.08;;;10.50;68.80;;;;;;4945010;28;20653;-52
2023/04/16 00:25:55;;;;;;;75.47;41.38;;;10.50;68.80;;;;;;4944851;28;20051;-48
2023/04/16 00:28:23;;;;;;;66.75;41.33;;;10.50;69.00;;;;;;4945422;28;20172;-54
2023/04/16 00:30:51;;;;;;;76.50;43.15;;;10.50;68.90;;;;;;4945224;28;20097;-52
2023/04/16 00:33:19;;;;;;;77.25;43.28;;;10.50;68.90;;;;;;4944985;28;20055;-49
2023/04/16 00:35:46;;;;;;;80.38;43.65;;;10.50;68.90;;;;;;4944487;28;20066;-56
2023/04/16 00:38:14;;;;;;;76.80;43.17;;;10.50;69.20;;;;;;4942963;28;20062;-53
2023/04/16 00:40:41;;;;;;;96.65;47.65;;;10.50;69.00;;;;;;4945330;28;20051;-52
2023/04/16 00:43:11;;;;;;;83.10;45.05;;;10.60;69.80;;;;;;4944616;28;20047;-55
2023/04/16 00:45:39;;;;;;;78.30;43.55;;;10.60;69.10;;;;;;4944850;28;20059;-55
2023/04/16 00:48:07;;;;;;;90.20;49.03;;;10.60;69.10;;;;;;4944852;28;20059;-56
2023/04/16 00:50:35;;;;;;;84.25;46.30;;;10.60;69.50;;;;;;4943567;28;20397;-54
2023/04/16 00:53:02;;;;;;;87.72;49.05;;;10.50;69.20;;;;;;4944358;28;20191;-51
2023/04/16 00:55:30;;;;;;;109.63;52.95;;;10.50;69.30;;;;;;4944857;28;20051;-56
2023/04/16 00:57:58;;;;;;;109.50;51.78;;;10.50;69.50;;;;;;4945497;28;20042;-50
2023/04/16 01:00:25;;;;;;;89.97;49.88;;;10.50;69.40;;;;;;4944514;28;20050;-50
2023/04/16 01:02:54;;;;;;;101.38;50.88;;;10.50;69.40;;;;;;4943857;28;20500;-51
2023/04/16 01:05:22;;;;;;;116.88;51.90;;;10.50;69.50;;;;;;4943474;28;20557;-54
2023/04/16 01:07:50;;;;;;;105.05;53.28;;;10.50;69.60;;;;;;4944362;28;20415;-52
2023/04/16 01:10:18;;;;;;;101.80;53.05;;;10.40;69.80;;;;;;4943788;28;20054;-51
2023/04/16 01:12:45;;;;;;;96.82;51.92;;;10.40;69.80;;;;;;4944225;28;20055;-52
2023/04/16 01:15:12;;;;;;;98.97;51.25;;;10.50;70.00;;;;;;4944115;28;20055;-52
2023/04/16 01:17:39;;;;;;;126.35;54.92;;;10.50;70.20;;;;;;4944691;28;20050;-49
2023/04/16 01:20:07;;;;;;;109.75;52.03;;;10.50;70.20;;;;;;4943361;28;20495;-51
2023/04/16 01:22:36;;;;;;;101.53;51.72;;;10.40;70.00;;;;;;4943708;28;20058;-53
2023/04/16 01:25:04;;;;;;;97.40;52.17;;;10.50;70.00;;;;;;4944050;28;20055;-53
2023/04/16 01:27:31;;;;;;;119.88;53.65;;;10.50;70.10;;;;;;4943767;28;20066;-54
2023/04/16 01:29:58;;;;;;;122.28;56.60;;;10.40;70.90;;;;;;4943966;28;20423;-53
2023/04/16 01:32:26;;;;;;;107.53;53.47;;;10.40;70.20;;;;;;4944092;28;20051;-53
2023/04/16 01:34:53;;;;;;;107.57;54.58;;;10.50;70.10;;;;;;4943205;28;20058;-50
2023/04/16 01:37:20;;;;;;;119.47;55.22;;;10.50;70.10;;;;;;4945256;28;20062;-55
2023/04/16 01:39:49;;;;;;;107.45;54.30;;;10.50;70.30;;;;;;4945410;28;20074;-55
2023/04/16 01:42:16;;;;;;;108.25;52.65;;;10.50;70.20;;;;;;4944962;28;20055;-53
2023/04/16 01:48:06;;;;;;;115.78;54.50;;;10.50;70.30;;;;;;4945377;28;20042;-53
2023/04/16 01:50:34;;;;;;;116.57;55.05;;;10.50;70.20;;;;;;4942160;28;20078;-53
2023/04/16 01:53:03;;;;;;;118.10;56.33;;;10.50;70.20;;;;;;4943347;28;20054;-53
2023/04/16 01:55:33;;;;;;;111.20;52.70;;;10.50;70.20;;;;;;4944703;28;20411;-54
2023/04/16 01:58:00;;;;;;;106.55;53.67;;;10.50;70.30;;;;;;4943805;28;20066;-54
2023/04/16 02:00:27;;;;;;;101.28;53.20;;;10.50;70.20;;;;;;4942603;28;20056;-55
2023/04/16 02:02:55;;;;;;;95.18;49.55;;;10.50;70.40;;;;;;4944880;28;20055;-56
2023/04/16 02:05:22;;;;;;;103.05;51.13;;;10.50;70.40;;;;;;4942074;28;20047;-55
2023/04/16 02:07:49;;;;;;;106.97;50.08;;;10.50;70.50;;;;;;4956134;28;20047;-56
2023/04/16 02:10:16;;;;;;;96.72;49.80;;;10.40;70.50;;;;;;4963676;28;20055;-53
2023/04/16 02:12:45;;;;;;;102.07;51.42;;;10.50;70.60;;;;;;4963874;28;20054;-55
2023/04/16 02:15:12;;;;;;;105.82;53.22;;;10.50;70.60;;;;;;4963688;28;20058;-54
2023/04/16 02:17:39;;;;;;;109.65;52.45;;;10.50;70.60;;;;;;4963764;28;20058;-52
2023/04/16 02:20:10;;;;;;;143.57;54.92;;;10.50;70.40;;;;;;4963221;28;20054;-54
2023/04/16 02:22:37;;;;;;;117.00;49.88;;;10.50;70.50;;;;;;4962723;28;20059;-50
2023/04/16 02:25:05;;;;;;;120.30;50.58;;;10.50;70.50;;;;;;4961742;28;20058;-52
2023/04/16 02:27:32;;;;;;;97.50;48.75;;;10.60;70.40;;;;;;4963025;28;20059;-51
2023/04/16 02:30:03;;;;;;;120.00;49.17;;;10.60;70.40;;;;;;4964084;28;20059;-51
2023/04/16 02:32:30;;;;;;;142.30;47.97;;;10.60;70.40;;;;;;4964154;28;20050;-49
2023/04/16 02:34:57;;;;;;;130.23;49.47;;;10.60;70.30;;;;;;4965546;28;20495;-50
2023/04/16 02:37:24;;;;;;;91.20;47.38;;;10.60;70.20;;;;;;4967192;28;20529;-50
2023/04/16 02:39:52;;;;;;;252.93;53.28;;;10.60;70.20;;;;;;4968163;28;20411;-48
2023/04/16 02:42:19;;;;;;;138.57;53.47;;;10.70;70.20;;;;;;4967957;28;20058;-54
2023/04/16 02:44:46;;;;;;;166.88;53.55;;;10.70;70.20;;;;;;4967570;28;20066;-51
2023/04/16 02:47:15;;;;;;;284.98;55.97;;;10.70;70.10;;;;;;4969157;28;20065;-52
2023/04/16 02:49:42;;;;;;;157.60;52.85;;;10.70;70.20;;;;;;4968490;28;20054;-53
2023/04/16 02:52:09;;;;;;;117.20;52.60;;;10.60;70.10;;;;;;4968665;28;20047;-54
2023/04/16 02:54:36;;;;;;;113.35;52.67;;;10.70;70.30;;;;;;4968205;28;20074;-54
2023/04/16 02:57:04;;;;;;;114.53;52.03;;;10.60;70.30;;;;;;4967932;28;20055;-47
2023/04/16 02:59:32;;;;;;;105.97;50.25;;;10.60;70.30;;;;;;4967372;28;20493;-50
2023/04/16 03:01:59;;;;;;;108.13;50.83;;;10.60;70.30;;;;;;4967766;28;20054;-51
2023/04/16 03:04:27;;;;;;;102.47;49.55;;;10.60;70.40;;;;;;4968244;28;20062;-51
2023/04/16 03:06:55;;;;;;;104.45;49.85;;;10.60;70.50;;;;;;4967727;28;20517;-53
2023/04/16 03:09:22;;;;;;;105.35;48.13;;;10.60;70.40;;;;;;4968656;28;20062;-53
2023/04/16 03:11:49;;;;;;;94.50;47.97;;;10.60;70.30;;;;;;4967607;28;20519;-53
2023/04/16 03:14:16;;;;;;;90.68;44.05;;;10.60;70.30;;;;;;4967250;28;20495;-52
2023/04/16 03:16:43;;;;;;;78.80;40.58;;;10.60;70.40;;;;;;4964644;28;20051;-53
2023/04/16 03:19:11;;;;;;;70.25;37.28;;;10.60;70.40;;;;;;4966118;28;20069;-51
2023/04/16 03:21:39;;;;;;;83.75;40.95;;;10.60;70.40;;;;;;4966698;28;20059;-53
2023/04/16 03:24:07;;;;;;;76.03;39.30;;;10.50;70.40;;;;;;4966850;28;20058;-49
2023/04/16 03:26:34;;;;;;;73.60;38.42;;;10.50;70.30;;;;;;4965845;28;20061;-50
2023/04/16 03:29:01;;;;;;;69.70;37.63;;;10.50;70.40;;;;;;4965277;28;20058;-49
2023/04/16 03:31:29;;;;;;;92.93;45.70;;;10.60;70.50;;;;;;4966306;28;20486;-53
2023/04/16 03:33:56;;;;;;;81.15;42.15;;;10.60;70.50;;;;;;4964757;28;20516;-52
2023/04/16 03:36:24;;;;;;;93.97;46.75;;;10.60;70.30;;;;;;4964968;28;20433;-54
2023/04/16 03:38:52;;;;;;;105.95;49.63;;;10.60;70.20;;;;;;4966133;28;20058;-50
2023/04/16 03:41:20;;;;;;;97.82;47.63;;;10.60;70.30;;;;;;4966826;28;20487;-51
2023/04/16 03:43:47;;;;;;;99.55;50.78;;;10.60;70.20;;;;;;4965369;28;20058;-51
2023/04/16 03:46:14;;;;;;;97.18;48.38;;;10.60;70.30;;;;;;4965545;28;20051;-54
2023/04/16 03:48:41;;;;;;;102.75;50.65;;;10.60;70.30;;;;;;4965430;28;20054;-53
2023/04/16 03:51:08;;;;;;;97.13;50.47;;;10.60;70.30;;;;;;4964544;28;20482;-49
2023/04/16 03:53:35;;;;;;;113.03;51.95;;;10.60;70.30;;;;;;4965092;28;20434;-50
2023/04/16 03:56:05;;;;;;;115.72;51.63;;;10.60;70.30;;;;;;4966231;28;20065;-51
2023/04/16 03:58:32;;;;;;;118.63;52.00;;;10.60;70.50;;;;;;4964577;28;20537;-54
2023/04/16 04:00:59;;;;;;;115.38;52.20;;;10.60;70.30;;;;;;4964659;28;20065;-52
2023/04/16 04:03:26;;;;;;;150.18;53.35;;;10.60;70.40;;;;;;4962517;28;20054;-51
2023/04/16 04:05:54;;;;;;;132.18;50.80;;;10.60;70.40;;;;;;4964367;28;20126;-50
2023/04/16 04:08:21;;;;;;;182.05;48.13;;;10.60;70.40;;;;;;4964780;28;20054;-48
2023/04/16 04:10:49;;;;;;;178.05;49.15;;;10.60;71.20;;;;;;4964349;28;20415;-49
2023/04/16 04:13:19;;;;;;;131.13;46.65;;;10.70;70.50;;;;;;4965202;28;20384;-52
2023/04/16 04:15:46;;;;;;;115.38;44.45;;;10.60;70.50;;;;;;4965501;28;20058;-51
2023/04/16 04:18:13;;;;;;;81.10;42.20;;;10.70;70.50;;;;;;4965817;28;20065;-49
2023/04/16 04:20:40;;;;;;;111.25;43.03;;;10.70;70.40;;;;;;4963759;28;20050;-49
2023/04/16 04:23:08;;;;;;;193.32;46.22;;;10.70;70.40;;;;;;4965269;28;20411;-49
2023/04/16 04:25:35;;;;;;;319.75;49.05;;;10.70;70.50;;;;;;4964415;28;20054;-55
2023/04/16 04:28:02;;;;;;;272.58;44.17;;;10.70;70.50;;;;;;4964350;28;20058;-50
2023/04/16 04:30:31;;;;;;;211.25;45.72;;;10.70;70.50;;;;;;4964363;28;20062;-53
2023/04/16 04:32:58;;;;;;;229.30;45.47;;;10.60;70.60;;;;;;4963652;28;20051;-55
2023/04/16 04:35:25;;;;;;;139.32;45.85;;;10.60;70.60;;;;;;4962226;28;20073;-55
2023/04/16 04:37:52;;;;;;;405.27;50.90;;;10.60;70.90;;;;;;4965350;28;20062;-55
2023/04/16 04:40:20;;;;;;;283.67;47.90;;;10.60;71.10;;;;;;4965838;28;20518;-54
2023/04/16 04:42:47;;;;;;;172.25;46.00;;;10.50;71.20;;;;;;4963931;28;20479;-51
2023/04/16 04:45:14;;;;;;;325.42;44.95;;;10.50;71.30;;;;;;4964223;28;20061;-47
2023/04/16 04:47:43;;;;;;;210.63;47.63;;;10.50;71.20;;;;;;4964991;28;20051;-49
2023/04/16 04:50:11;;;;;;;278.45;49.58;;;10.50;71.40;;;;;;4964550;28;20078;-52
2023/04/16 04:52:38;;;;;;;128.35;43.40;;;10.50;71.50;;;;;;4962297;28;20058;-53
2023/04/16 04:55:06;;;;;;;173.32;46.10;;;10.50;71.40;;;;;;4964042;28;20062;-53
2023/04/16 04:57:33;;;;;;;91.85;42.35;;;10.50;71.50;;;;;;4964273;28;20059;-54
2023/04/16 05:00:03;;;;;;;132.10;44.20;;;10.50;71.50;;;;;;4962656;28;20066;-50
2023/04/16 05:02:30;;;;;;;95.38;45.28;;;10.50;71.50;;;;;;4964770;28;20054;-51
2023/04/16 05:04:58;;;;;;;104.80;43.35;;;10.50;71.60;;;;;;4962823;28;20058;-47
2023/04/16 05:07:26;;;;;;;127.25;44.78;;;10.60;71.60;;;;;;4964481;28;20058;-45
2023/04/16 05:09:53;;;;;;;101.38;45.13;;;10.60;71.60;;;;;;4964372;28;20062;-52
2023/04/16 05:12:20;;;;;;;113.28;46.13;;;10.60;71.60;;;;;;4963857;28;20066;-47
2023/04/16 05:14:47;;;;;;;93.63;43.97;;;10.60;71.60;;;;;;4963909;28;20406;-50
2023/04/16 05:17:15;;;;;;;125.35;44.90;;;10.60;71.50;;;;;;4963799;28;20475;-50
2023/04/16 05:19:42;;;;;;;94.88;42.20;;;10.70;71.50;;;;;;4964963;28;20131;-48
2023/04/16 05:22:11;;;;;;;99.28;46.42;;;10.70;71.40;;;;;;4962612;28;20053;-56
2023/04/16 05:24:38;;;;;;;86.75;42.83;;;10.70;71.50;;;;;;4964043;28;20062;-48
2023/04/16 05:27:05;;;;;;;103.38;46.40;;;10.70;71.30;;;;;;4963965;28;20074;-47
2023/04/16 05:29:33;;;;;;;103.25;42.90;;;10.70;71.20;;;;;;4964256;28;20062;-50
2023/04/16 05:32:00;;;;;;;98.82;45.70;;;10.80;71.20;;;;;;4963902;28;20391;-51
2023/04/16 05:34:28;;;;;;;89.22;43.75;;;10.80;71.10;;;;;;4962563;28;20426;-48
2023/04/16 05:36:55;;;;;;;114.60;45.60;;;10.80;71.00;;;;;;4952471;28;20050;-51
2023/04/16 05:39:24;;;;;;;92.03;43.20;;;10.80;71.00;;;;;;4946443;28;20055;-50
2023/04/16 05:41:51;;;;;;;94.13;41.60;;;10.80;71.00;;;;;;4944131;28;20070;-49
2023/04/16 05:44:19;;;;;;;95.80;42.40;;;10.80;71.00;;;;;;4943419;28;20592;-49
2023/04/16 05:46:46;;;;;;;94.47;40.10;;;10.80;71.00;;;;;;4944199;28;20059;-48
2023/04/16 05:49:14;;;;;;;85.57;41.78;;;10.80;70.90;;;;;;4943176;28;20408;-47
2023/04/16 05:51:41;;;;;;;99.82;43.10;;;10.90;70.80;;;;;;4944220;28;20062;-53
2023/04/16 05:54:09;;;;;;;89.75;41.45;;;10.90;70.80;;;;;;4942865;28;20357;-51
2023/04/16 05:56:39;;;;;;;79.70;38.97;;;10.90;70.80;;;;;;4944540;28;20059;-50
2023/04/16 05:59:06;;;;;;;105.45;41.78;;;10.90;70.70;;;;;;4943215;28;20404;-49
2023/04/16 06:01:33;;;;;;;100.15;44.45;;;10.90;70.70;;;;;;4943491;28;20062;-51
2023/04/16 06:04:01;;;;;;;103.15;45.50;;;10.90;70.70;;;;;;4942708;28;20054;-49
2023/04/16 06:06:28;;;;;;;93.43;43.92;;;10.90;70.80;;;;;;4942631;28;20074;-52
2023/04/16 06:08:55;;;;;;;90.18;42.10;;;10.80;70.90;;;;;;4944601;28;20434;-48
2023/04/16 06:11:22;;;;;;;100.65;44.53;;;10.80;70.90;;;;;;4949311;28;20058;-48
2023/04/16 06:13:51;;;;;;;97.43;42.83;;;10.80;71.00;;;;;;4947516;28;20063;-47
2023/04/16 06:16:18;;;;;;;91.25;40.90;;;10.80;71.10;;;;;;4947676;28;20066;-48
2023/04/16 06:18:45;;;;;;;90.25;42.28;;;10.80;71.00;;;;;;4946773;28;20054;-49
2023/04/16 06:21:14;;;;;;;99.97;42.67;;;10.80;71.10;;;;;;4947069;28;20058;-53
2023/04/16 06:23:42;;;;;;;98.18;43.35;;;10.90;71.20;;;;;;4946478;28;20055;-50
2023/04/16 06:26:12;;;;;;;85.68;41.40;;;10.80;71.10;;;;;;4945709;28;20414;-48
2023/04/16 06:28:40;;;;;;;87.70;42.38;;;10.90;71.20;;;;;;4947158;28;20070;-49
2023/04/16 06:31:09;;;;;;;97.88;41.22;;;10.80;71.20;;;;;;4947038;28;20067;-46
2023/04/16 06:33:37;;;;;;;98.80;44.72;;;10.90;71.30;;;;;;4944080;28;20074;-49
2023/04/16 06:36:05;;;;;;;96.05;44.03;;;10.80;71.30;;;;;;4945592;28;20058;-50
2023/04/16 06:38:33;;;;;;;107.60;46.08;;;10.90;71.40;;;;;;4946519;28;20055;-52
2023/04/16 06:41:02;;;;;;;88.15;40.42;;;10.80;71.40;;;;;;4943851;28;20412;-49
2023/04/16 06:43:31;;;;;;;99.38;44.22;;;10.80;71.50;;;;;;4947085;28;20067;-50
2023/04/16 06:45:59;;;;;;;98.35;43.65;;;10.80;71.60;;;;;;4930864;28;20417;-49
2023/04/16 06:48:28;;;;;;;97.25;44.30;;;10.80;71.60;;;;;;4945564;28;20541;-51
2023/04/16 06:50:56;;;;;;;95.60;44.53;;;10.80;71.60;;;;;;4946685;28;20476;-47
2023/04/16 06:53:25;;;;;;;97.15;42.78;;;10.90;71.70;;;;;;4947107;28;20054;-51
2023/04/16 06:55:53;;;;;;;99.25;45.35;;;10.90;71.60;;;;;;4946494;28;20070;-53
2023/04/16 06:58:21;;;;;;;96.70;41.08;;;10.90;71.70;;;;;;4946266;28;20062;-45
2023/04/16 07:00:57;;;;;;;88.80;41.83;;;10.90;71.60;;;;;;4947298;28;20194;-48
2023/04/16 07:03:25;;;;;;;93.13;42.65;;;10.90;71.60;;;;;;4947390;28;20047;-52
2023/04/16 07:05:53;;;;;;;91.45;41.33;;;10.90;71.60;;;;;;4944879;28;20151;-51
2023/04/16 07:08:21;;;;;;;81.95;38.85;;;10.90;71.60;;;;;;4946374;28;20085;-48
2023/04/16 07:10:48;;;;;;;94.90;42.10;;;10.90;71.60;;;;;;4947654;28;20510;-55
2023/04/16 07:13:18;;;;;;;83.88;39.88;;;10.90;71.70;;;;;;4947819;28;20058;-50
2023/04/16 07:15:45;;;;;;;84.80;40.33;;;10.90;71.70;;;;;;4945800;28;20404;-55
2023/04/16 07:18:15;;;;;;;89.60;39.53;;;10.90;71.80;;;;;;4946527;28;20070;-50
2023/04/16 07:20:42;;;;;;;93.10;39.58;;;10.90;71.90;;;;;;4945783;28;20058;-52
2023/04/16 07:23:11;;;;;;;91.07;38.83;;;10.90;71.90;;;;;;4948213;28;20050;-51
2023/04/16 07:25:38;;;;;;;79.13;38.97;;;10.90;72.10;;;;;;4944853;28;20132;-50
2023/04/16 07:28:06;;;;;;;82.40;36.95;;;10.90;72.10;;;;;;4943511;28;20073;-52
2023/04/16 07:30:34;;;;;;;82.50;38.60;;;10.90;72.20;;;;;;4944611;28;20059;-48
2023/04/16 07:33:03;;;;;;;81.95;37.65;;;10.90;72.30;;;;;;4946179;28;20051;-50
2023/04/16 07:35:31;;;;;;;90.95;40.58;;;10.90;72.30;;;;;;4945563;28;20551;-50
2023/04/16 07:37:58;;;;;;;89.65;39.65;;;10.90;72.30;;;;;;4947069;28;20053;-46
2023/04/16 07:40:39;;;;;;;82.03;38.22;;;11.00;72.30;;;;;;4947747;28;20055;-49
2023/04/16 07:43:06;;;;;;;84.50;39.63;;;11.00;72.40;;;;;;4945454;28;20054;-52
2023/04/16 07:45:33;;;;;;;95.55;41.40;;;11.00;72.30;;;;;;4945441;28;20520;-54
2023/04/16 07:48:01;;;;;;;93.82;39.60;;;11.00;72.20;;;;;;4946107;28;20055;-53
2023/04/16 07:50:28;;;;;;;97.22;41.70;;;11.00;72.30;;;;;;4943855;28;20059;-54
2023/04/16 07:52:55;;;;;;;92.43;39.65;;;11.00;72.20;;;;;;4945151;28;20051;-54
2023/04/16 07:55:22;;;;;;;95.00;39.97;;;11.00;72.30;;;;;;4945250;28;20419;-55
2023/04/16 07:57:51;;;;;;;82.80;37.03;;;11.10;72.40;;;;;;4946703;28;20393;-54
2023/04/16 08:00:18;;;;;;;86.72;39.83;;;11.10;72.40;;;;;;4946628;28;20059;-55
2023/04/16 08:02:45;;;;;;;84.25;38.97;;;11.10;72.40;;;;;;4945356;28;20055;-54
2023/04/16 08:05:13;;;;;;;85.45;39.47;;;11.10;72.40;;;;;;4943898;28;20085;-54
2023/04/16 08:07:40;;;;;;;96.40;42.05;;;11.10;72.50;;;;;;4944051;28;20055;-53
2023/04/16 08:10:08;;;;;;;90.03;41.60;;;11.10;72.60;;;;;;4944739;28;20055;-56
2023/04/16 08:12:35;;;;;;;96.38;42.80;;;11.10;72.60;;;;;;4942392;28;20055;-53
2023/04/16 08:15:05;;;;;;;103.65;44.40;;;11.10;72.50;;;;;;4943613;28;20055;-49
2023/04/16 08:17:33;;;;;;;97.90;44.40;;;11.10;72.60;;;;;;4944771;28;20069;-49
2023/04/16 08:20:00;;;;;;;110.53;45.40;;;11.00;72.40;;;;;;4942710;28;20047;-52
2023/04/16 08:22:28;;;;;;;104.80;46.15;;;11.00;72.30;;;;;;4942567;28;20763;-54
2023/04/16 08:24:55;;;;;;;105.47;47.83;;;11.00;72.60;;;;;;4945845;28;20408;-51
2023/04/16 08:27:22;;;;;;;103.10;46.72;;;11.00;73.20;;;;;;4946043;28;20058;-52
2023/04/16 08:29:49;;;;;;;85.68;41.25;;;11.10;72.60;;;;;;4942626;28;20046;-49
2023/04/16 08:32:18;;;;;;;103.53;45.35;;;11.10;72.50;;;;;;4946446;28;20555;-51
2023/04/16 08:34:46;;;;;;;88.93;41.95;;;11.00;72.20;;;;;;4939890;28;20055;-53
2023/04/16 08:37:16;;;;;;;85.03;40.85;;;11.00;72.20;;;;;;4943732;28;20086;-49
2023/04/16 08:39:43;;;;;;;80.85;40.25;;;11.00;72.10;;;;;;4943840;28;20058;-54
2023/04/16 08:42:21;;;;;;;87.22;39.50;;;11.10;71.90;;;;;;4944997;28;20046;-51
2023/04/16 08:44:50;;;;;;;78.55;38.53;;;11.00;71.70;;;;;;4944006;28;20444;-55
2023/04/16 08:47:20;;;;;;;81.47;38.83;;;11.00;71.70;;;;;;4944506;28;20399;-50
2023/04/16 08:49:48;;;;;;;75.30;37.95;;;11.10;71.70;;;;;;4942831;28;20427;-51
2023/04/16 08:52:21;;;;;;;69.38;35.53;;;11.10;71.70;;;;;;4945884;28;20150;-54
2023/04/16 08:54:56;;;;;;;73.15;35.70;;;11.10;71.70;;;;;;4943769;28;20055;-53
2023/04/16 08:57:38;;;;;;;78.25;36.13;;;11.20;71.70;;;;;;4926364;28;20055;-52
2023/04/16 09:00:09;;;;;;;75.65;34.95;;;11.10;71.40;;;;;;4944585;28;20077;-52
2023/04/16 09:02:39;;;;;;;69.65;35.97;;;11.20;71.40;;;;;;4944655;28;20070;-53
2023/04/16 09:05:10;;;;;;;63.03;34.25;;;11.20;71.40;;;;;;4943286;28;20051;-50
2023/04/16 09:07:38;;;;;;;80.35;36.15;;;11.30;71.30;;;;;;4945017;28;20061;-47
2023/04/16 09:10:08;;;;;;;68.63;36.90;;;11.30;71.00;;;;;;4942844;28;20043;-55
2023/04/16 09:12:36;;;;;;;76.30;34.17;;;11.30;70.60;;;;;;4945647;28;20050;-51
2023/04/16 09:15:06;;;;;;;65.95;33.55;;;11.40;70.90;;;;;;4943920;28;20059;-54
2023/04/16 09:17:34;;;;;;;64.53;31.73;;;11.40;70.10;;;;;;4943502;28;20534;-53
2023/04/16 09:20:04;;;;;;;72.43;34.50;;;11.40;69.90;;;;;;4942711;28;20058;-48
2023/04/16 09:22:32;;;;;;;59.45;31.02;;;11.50;69.60;;;;;;4942345;28;20050;-52
2023/04/16 09:24:59;;;;;;;61.17;31.75;;;11.50;69.50;;;;;;4942440;28;21292;-55
2023/04/16 09:27:27;;;;;;;59.55;30.73;;;11.50;69.20;;;;;;4944355;28;20070;-53
2023/04/16 09:29:54;;;;;;;59.50;30.00;;;11.50;69.20;;;;;;4942656;28;20063;-54
2023/04/16 09:32:27;;;;;;;63.53;32.20;;;11.50;69.40;;;;;;4944562;28;20048;-55
2023/04/16 09:34:56;;;;;;;58.40;30.38;;;11.60;69.20;;;;;;4939789;28;20514;-50
2023/04/16 09:37:26;;;;;;;52.65;29.13;;;11.60;69.10;;;;;;4945168;28;20609;-49
2023/04/16 09:39:55;;;;;;;59.88;31.00;;;11.70;69.20;;;;;;4945139;28;20410;-55
2023/04/16 09:42:24;;;;;;;67.68;31.70;;;11.80;68.80;;;;;;4947291;28;20070;-54
2023/04/16 09:44:51;;;;;;;55.00;30.77;;;11.80;68.40;;;;;;4948490;28;20051;-51
2023/04/16 09:47:18;;;;;;;57.30;30.65;;;11.90;68.10;;;;;;4946536;28;20062;-50
2023/04/16 09:49:47;;;;;;;57.10;30.98;;;11.90;67.80;;;;;;4945588;28;20756;-51
2023/04/16 09:52:15;;;;;;;60.67;31.17;;;12.00;67.80;;;;;;4947478;28;20051;-54
2023/04/16 09:54:51;;;;;;;57.65;31.20;;;12.00;67.60;;;;;;4948555;28;20448;-50
2023/04/16 09:57:20;;;;;;;58.30;31.38;;;12.10;67.30;;;;;;4947495;28;20722;-54
2023/04/16 09:59:48;;;;;;;52.85;28.60;;;12.10;67.00;;;;;;4948373;28;20058;-52
2023/04/16 10:02:19;;;;;;;56.50;30.08;;;12.20;66.70;;;;;;4947734;28;20054;-51
2023/04/16 10:04:47;;;;;;;51.75;28.65;;;12.20;66.60;;;;;;4946671;28;20529;-53
2023/04/16 10:07:15;;;;;;;54.15;28.30;;;12.30;66.90;;;;;;4946897;28;20063;-54
2023/04/16 10:09:43;;;;;;;49.63;27.90;;;12.30;66.40;;;;;;4947840;28;20066;-54
2023/04/16 10:12:12;;;;;;;52.85;27.65;;;12.30;66.20;;;;;;4948471;28;20546;-55
2023/04/16 10:14:39;;;;;;;51.58;28.02;;;12.40;65.80;;;;;;4946851;28;20057;-55
2023/04/16 10:17:07;;;;;;;57.25;30.10;;;12.40;65.50;;;;;;4947726;28;20051;-54
2023/04/16 10:19:34;;;;;;;50.45;27.05;;;12.50;65.30;;;;;;4946780;28;20407;-53
2023/04/16 10:22:02;;;;;;;56.78;29.73;;;12.50;65.20;;;;;;4945294;28;20047;-52
2023/04/16 10:24:30;;;;;;;52.20;28.80;;;12.50;64.90;;;;;;4946406;28;20066;-55
2023/04/16 10:26:58;;;;;;;50.63;26.77;;;12.50;64.40;;;;;;4948797;28;20065;-54
2023/04/16 10:29:28;;;;;;;47.85;26.60;;;12.50;64.20;;;;;;4946169;28;20059;-54
2023/04/16 10:31:56;;;;;;;52.42;29.45;;;12.60;64.30;;;;;;4946821;28;20055;-54
2023/04/16 10:34:25;;;;;;;47.25;27.50;;;12.60;64.30;;;;;;4944950;28;20050;-54
2023/04/16 10:36:54;;;;;;;43.25;25.95;;;12.60;63.90;;;;;;4945895;28;20057;-53
2023/04/16 10:39:22;;;;;;;48.63;27.48;;;12.60;63.90;;;;;;4947437;28;20070;-55
2023/04/16 10:42:06;;;;;;;47.88;27.42;;;12.60;63.80;;;;;;4949719;28;20059;-55
2023/04/16 10:44:34;;;;;;;49.63;27.85;;;12.70;63.00;;;;;;4951396;28;20059;-54
2023/04/16 10:47:02;;;;;;;56.92;29.40;;;12.70;63.00;;;;;;4950222;28;20066;-55
2023/04/16 10:49:29;;;;;;;47.13;27.42;;;12.70;62.90;;;;;;4948819;28;20066;-54
2023/04/16 10:51:57;;;;;;;44.28;25.35;;;12.70;62.90;;;;;;4944474;28;20051;-54
2023/04/16 10:54:26;;;;;;;47.35;27.50;;;12.70;62.90;;;;;;4946378;28;20054;-54
2023/04/16 10:56:55;;;;;;;46.05;27.80;;;12.70;62.40;;;;;;4949115;28;20070;-54
2023/04/16 10:59:24;;;;;;;51.65;27.02;;;12.70;62.60;;;;;;4947382;28;20508;-53
2023/04/16 11:01:54;;;;;;;41.63;25.38;;;12.80;62.50;;;;;;4947801;28;20055;-49
2023/04/16 11:04:30;;;;;;;42.42;24.98;;;12.80;62.40;;;;;;4947075;28;20060;-54
2023/04/16 11:07:18;;;;;;;45.38;26.92;;;12.80;62.70;;;;;;4947433;28;20066;-54
2023/04/16 11:09:54;;;;;;;43.42;27.17;;;12.90;62.40;;;;;;4945781;28;20557;-53
2023/04/16 11:12:25;;;;;;;45.42;27.00;;;12.90;62.40;;;;;;4948394;28;20055;-55
2023/04/16 11:14:54;;;;;;;44.13;25.50;;;12.90;62.30;;;;;;4946715;28;20055;-53
2023/04/16 11:17:23;;;;;;;48.92;27.60;;;12.90;62.10;;;;;;4948119;28;20058;-55
2023/04/16 11:19:50;;;;;;;43.92;25.05;;;12.90;61.90;;;;;;4945877;28;20070;-53
2023/04/16 11:22:18;;;;;;;48.22;27.67;;;12.90;61.90;;;;;;4945985;28;20062;-55
2023/04/16 11:24:46;;;;;;;46.50;27.02;;;13.00;61.90;;;;;;4946893;28;20054;-54
2023/04/16 11:27:14;;;;;;;47.88;26.55;;;12.90;62.10;;;;;;4945164;28;20594;-53
2023/04/16 11:29:41;;;;;;;42.25;24.83;;;13.00;62.40;;;;;;4947191;28;20075;-55
2023/04/16 11:32:08;;;;;;;42.17;24.98;;;13.10;62.50;;;;;;4946272;28;20055;-55
2023/04/16 11:34:45;;;;;;;45.38;24.52;;;13.10;62.30;;;;;;4946121;28;20154;-53
2023/04/16 11:37:12;;;;;;;43.80;26.15;;;13.20;62.60;;;;;;4945131;28;20444;-53
2023/04/16 11:39:52;;;;;;;42.90;26.33;;;13.20;61.40;;;;;;4946017;28;20434;-54
2023/04/16 11:42:21;;;;;;;46.88;25.85;;;13.20;61.20;;;;;;4945715;28;20055;-55
2023/04/16 11:44:53;;;;;;;41.22;24.73;;;13.30;61.20;;;;;;4946701;28;20404;-52
2023/04/16 11:47:20;;;;;;;44.88;26.27;;;13.30;61.30;;;;;;4946391;28;20089;-54
2023/04/16 11:49:48;;;;;;;43.65;27.60;;;13.40;61.30;;;;;;4944868;28;20055;-54
2023/04/16 11:52:27;;;;;;;41.58;26.27;;;13.40;60.30;;;;;;4946753;28;20050;-55
2023/04/16 11:54:54;;;;;;;39.58;24.95;;;13.40;59.70;;;;;;4945326;28;20047;-53
2023/04/16 11:57:25;;;;;;;42.03;27.25;;;13.40;59.70;;;;;;4945246;28;20055;-55
2023/04/16 11:59:53;;;;;;;40.42;25.67;;;13.40;59.40;;;;;;4945481;28;20066;-55
2023/04/16 12:02:35;;;;;;;41.53;25.50;;;13.40;59.50;;;;;;4946025;28;20062;-54
2023/04/16 12:05:04;;;;;;;43.78;26.40;;;13.40;59.40;;;;;;4944361;28;20063;-53
2023/04/16 12:07:43;;;;;;;40.45;25.77;;;13.40;59.50;;;;;;4945967;28;20051;-52
2023/04/16 12:10:10;;;;;;;42.13;25.15;;;13.40;60.20;;;;;;4944843;28;20179;-54
2023/04/16 12:12:38;;;;;;;39.03;25.15;;;13.40;59.70;;;;;;4945155;28;20059;-54
2023/04/16 12:15:05;;;;;;;42.58;26.02;;;13.40;59.60;;;;;;4945060;28;20416;-51
2023/04/16 12:17:33;;;;;;;38.80;23.73;;;13.50;59.60;;;;;;4945702;28;20419;-55
2023/04/16 12:20:02;;;;;;;37.28;23.85;;;13.50;59.60;;;;;;4944838;28;20051;-52
2023/04/16 12:22:33;;;;;;;36.67;24.50;;;13.50;59.80;;;;;;4944344;28;20062;-55
2023/04/16 12:25:01;;;;;;;40.80;26.30;;;13.60;59.40;;;;;;4945185;28;20059;-54
2023/04/16 12:27:49;;;;;;;36.75;23.08;;;13.60;59.20;;;;;;4945059;28;20059;-48
2023/04/16 12:30:17;;;;;;;36.47;23.95;;;13.60;58.90;;;;;;4944889;28;20495;-50
2023/04/16 12:32:46;;;;;;;41.70;24.30;;;13.70;59.00;;;;;;4944507;28;20059;-49